sensor_id;sensor_type;location;lat;lon;timestamp;P1;durP1;ratioP1;P2;durP2;ratioP2
66751;SDS011;53663;42.676;23.238;2024-03-25T00:01:24;0.45;;;0.45;;
66751;SDS011;53663;42.676;23.238;2024-03-25T00:03:50;1.17;;;0.30;;
66751;SDS011;53663;42.676;23.238;2024-03-25T00:06:15;0.35;;;0.35;;
66751;SDS011;53663;42.676;23.238;2024-03-25T00:08:41;0.98;;;0.70;;
66751;SDS011;53663;42.676;23.238;2024-03-25T00:11:07;1.55;;;0.55;;
66751;SDS011;53663;42.676;23.238;2024-03-25T00:13:33;2.25;;;0.60;;
66751;SDS011;53663;42.676;23.238;2024-03-25T00:15:58;0.50;;;0.40;;
66751;SDS011;53663;42.676;23.238;2024-03-25T00:18:24;3.33;;;0.20;;
66751;SDS011;53663;42.676;23.238;2024-03-25T00:20:49;0.75;;;0.65;;
66751;SDS011;53663;42.676;23.238;2024-03-25T00:23:16;2.08;;;0.70;;
66751;SDS011;53663;42.676;23.238;2024-03-25T00:25:41;0.40;;;0.40;;
66751;SDS011;53663;42.676;23.238;2024-03-25T00:28:07;0.20;;;0.20;;
66751;SDS011;53663;42.676;23.238;2024-03-25T00:30:32;0.20;;;0.20;;
66751;SDS011;53663;42.676;23.238;2024-03-25T00:32:59;0.20;;;0.17;;
66751;SDS011;53663;42.676;23.238;2024-03-25T00:35:25;0.90;;;0.30;;
66751;SDS011;53663;42.676;23.238;2024-03-25T00:37:50;0.50;;;0.30;;
66751;SDS011;53663;42.676;23.238;2024-03-25T00:40:16;0.70;;;0.70;;
66751;SDS011;53663;42.676;23.238;2024-03-25T00:42:42;0.32;;;0.30;;
66751;SDS011;53663;42.676;23.238;2024-03-25T00:45:07;0.38;;;0.30;;
66751;SDS011;53663;42.676;23.238;2024-03-25T00:47:33;0.60;;;0.43;;
66751;SDS011;53663;42.676;23.238;2024-03-25T00:49:59;0.30;;;0.30;;
66751;SDS011;53663;42.676;23.238;2024-03-25T00:52:24;1.10;;;0.73;;
66751;SDS011;53663;42.676;23.238;2024-03-25T00:54:50;0.77;;;0.38;;
66751;SDS011;53663;42.676;23.238;2024-03-25T00:57:15;0.50;;;0.50;;
66751;SDS011;53663;42.676;23.238;2024-03-25T00:59:41;0.50;;;0.50;;
66751;SDS011;53663;42.676;23.238;2024-03-25T01:02:06;0.35;;;0.35;;
66751;SDS011;53663;42.676;23.238;2024-03-25T01:04:33;0.32;;;0.32;;
66751;SDS011;53663;42.676;23.238;2024-03-25T01:06:59;1.08;;;0.45;;
66751;SDS011;53663;42.676;23.238;2024-03-25T01:09:24;3.85;;;0.70;;
66751;SDS011;53663;42.676;23.238;2024-03-25T01:11:50;1.48;;;1.20;;
66751;SDS011;53663;42.676;23.238;2024-03-25T01:14:16;1.10;;;0.52;;
66751;SDS011;53663;42.676;23.238;2024-03-25T01:16:42;0.57;;;0.57;;
66751;SDS011;53663;42.676;23.238;2024-03-25T01:19:08;0.57;;;0.57;;
66751;SDS011;53663;42.676;23.238;2024-03-25T01:21:33;0.65;;;0.65;;
66751;SDS011;53663;42.676;23.238;2024-03-25T01:24:00;0.45;;;0.43;;
66751;SDS011;53663;42.676;23.238;2024-03-25T01:26:26;0.82;;;0.82;;
66751;SDS011;53663;42.676;23.238;2024-03-25T01:28:52;0.85;;;0.60;;
66751;SDS011;53663;42.676;23.238;2024-03-25T01:31:18;0.45;;;0.45;;
66751;SDS011;53663;42.676;23.238;2024-03-25T01:33:44;0.38;;;0.38;;
66751;SDS011;53663;42.676;23.238;2024-03-25T01:36:10;2.22;;;0.60;;
66751;SDS011;53663;42.676;23.238;2024-03-25T01:38:41;1.65;;;0.60;;
66751;SDS011;53663;42.676;23.238;2024-03-25T01:41:10;0.60;;;0.45;;
66751;SDS011;53663;42.676;23.238;2024-03-25T01:43:37;1.08;;;0.60;;
66751;SDS011;53663;42.676;23.238;2024-03-25T01:46:03;1.27;;;0.50;;
66751;SDS011;53663;42.676;23.238;2024-03-25T01:48:31;1.13;;;0.50;;
66751;SDS011;53663;42.676;23.238;2024-03-25T01:50:56;1.20;;;1.10;;
66751;SDS011;53663;42.676;23.238;2024-03-25T01:53:23;0.52;;;0.52;;
66751;SDS011;53663;42.676;23.238;2024-03-25T01:55:49;0.68;;;0.68;;
66751;SDS011;53663;42.676;23.238;2024-03-25T01:58:20;0.47;;;0.47;;
66751;SDS011;53663;42.676;23.238;2024-03-25T02:00:46;0.40;;;0.40;;
66751;SDS011;53663;42.676;23.238;2024-03-25T02:03:12;0.63;;;0.55;;
66751;SDS011;53663;42.676;23.238;2024-03-25T02:05:38;1.35;;;0.57;;
66751;SDS011;53663;42.676;23.238;2024-03-25T02:08:04;0.55;;;0.50;;
66751;SDS011;53663;42.676;23.238;2024-03-25T02:10:31;0.60;;;0.60;;
66751;SDS011;53663;42.676;23.238;2024-03-25T02:12:57;1.00;;;0.70;;
66751;SDS011;53663;42.676;23.238;2024-03-25T02:15:23;1.40;;;1.10;;
66751;SDS011;53663;42.676;23.238;2024-03-25T02:17:51;0.73;;;0.70;;
66751;SDS011;53663;42.676;23.238;2024-03-25T02:20:17;0.65;;;0.40;;
66751;SDS011;53663;42.676;23.238;2024-03-25T02:22:43;0.47;;;0.30;;
66751;SDS011;53663;42.676;23.238;2024-03-25T02:25:09;0.50;;;0.50;;
66751;SDS011;53663;42.676;23.238;2024-03-25T02:27:38;0.75;;;0.75;;
66751;SDS011;53663;42.676;23.238;2024-03-25T02:32:38;0.40;;;0.40;;
66751;SDS011;53663;42.676;23.238;2024-03-25T02:35:05;1.40;;;0.57;;
66751;SDS011;53663;42.676;23.238;2024-03-25T02:37:33;0.65;;;0.65;;
66751;SDS011;53663;42.676;23.238;2024-03-25T02:39:59;0.77;;;0.77;;
66751;SDS011;53663;42.676;23.238;2024-03-25T02:42:26;0.43;;;0.43;;
66751;SDS011;53663;42.676;23.238;2024-03-25T02:44:54;0.93;;;0.90;;
66751;SDS011;53663;42.676;23.238;2024-03-25T02:47:20;0.50;;;0.50;;
66751;SDS011;53663;42.676;23.238;2024-03-25T02:49:45;0.40;;;0.40;;
66751;SDS011;53663;42.676;23.238;2024-03-25T02:52:11;1.65;;;0.70;;
66751;SDS011;53663;42.676;23.238;2024-03-25T02:54:37;2.42;;;0.77;;
66751;SDS011;53663;42.676;23.238;2024-03-25T02:57:02;0.93;;;0.90;;
66751;SDS011;53663;42.676;23.238;2024-03-25T02:59:28;1.75;;;1.10;;
66751;SDS011;53663;42.676;23.238;2024-03-25T03:01:53;1.02;;;0.88;;
66751;SDS011;53663;42.676;23.238;2024-03-25T03:04:19;0.95;;;0.85;;
66751;SDS011;53663;42.676;23.238;2024-03-25T03:06:44;0.60;;;0.60;;
66751;SDS011;53663;42.676;23.238;2024-03-25T03:09:10;0.80;;;0.80;;
66751;SDS011;53663;42.676;23.238;2024-03-25T03:11:35;0.50;;;0.50;;
66751;SDS011;53663;42.676;23.238;2024-03-25T03:14:01;0.75;;;0.75;;
66751;SDS011;53663;42.676;23.238;2024-03-25T03:16:26;0.70;;;0.70;;
66751;SDS011;53663;42.676;23.238;2024-03-25T03:18:52;0.82;;;0.82;;
66751;SDS011;53663;42.676;23.238;2024-03-25T03:21:17;0.60;;;0.60;;
66751;SDS011;53663;42.676;23.238;2024-03-25T03:23:43;0.70;;;0.70;;
66751;SDS011;53663;42.676;23.238;2024-03-25T03:26:08;0.70;;;0.70;;
66751;SDS011;53663;42.676;23.238;2024-03-25T03:28:34;0.90;;;0.90;;
66751;SDS011;53663;42.676;23.238;2024-03-25T03:30:59;0.93;;;0.80;;
66751;SDS011;53663;42.676;23.238;2024-03-25T03:33:25;1.30;;;1.20;;
66751;SDS011;53663;42.676;23.238;2024-03-25T03:35:51;0.95;;;0.95;;
66751;SDS011;53663;42.676;23.238;2024-03-25T03:38:17;1.30;;;1.20;;
66751;SDS011;53663;42.676;23.238;2024-03-25T03:40:44;1.10;;;1.08;;
66751;SDS011;53663;42.676;23.238;2024-03-25T03:43:20;1.50;;;1.40;;
66751;SDS011;53663;42.676;23.238;2024-03-25T03:45:45;1.58;;;1.38;;
66751;SDS011;53663;42.676;23.238;2024-03-25T03:48:11;3.17;;;1.65;;
66751;SDS011;53663;42.676;23.238;2024-03-25T03:50:36;2.40;;;1.88;;
66751;SDS011;53663;42.676;23.238;2024-03-25T03:53:02;3.40;;;1.83;;
66751;SDS011;53663;42.676;23.238;2024-03-25T03:55:27;4.50;;;1.95;;
66751;SDS011;53663;42.676;23.238;2024-03-25T03:57:53;3.30;;;2.20;;
66751;SDS011;53663;42.676;23.238;2024-03-25T04:00:18;2.97;;;1.77;;
66751;SDS011;53663;42.676;23.238;2024-03-25T04:02:44;2.55;;;1.92;;
66751;SDS011;53663;42.676;23.238;2024-03-25T04:05:09;2.72;;;2.10;;
66751;SDS011;53663;42.676;23.238;2024-03-25T04:07:35;2.00;;;1.80;;
66751;SDS011;53663;42.676;23.238;2024-03-25T04:10:00;5.95;;;2.35;;
66751;SDS011;53663;42.676;23.238;2024-03-25T04:12:26;3.00;;;2.03;;
66751;SDS011;53663;42.676;23.238;2024-03-25T04:14:51;2.85;;;2.15;;
66751;SDS011;53663;42.676;23.238;2024-03-25T04:17:20;3.40;;;2.40;;
66751;SDS011;53663;42.676;23.238;2024-03-25T04:19:47;4.90;;;2.40;;
66751;SDS011;53663;42.676;23.238;2024-03-25T04:22:13;4.32;;;2.67;;
66751;SDS011;53663;42.676;23.238;2024-03-25T04:24:39;3.63;;;2.70;;
66751;SDS011;53663;42.676;23.238;2024-03-25T04:27:04;5.35;;;2.90;;
66751;SDS011;53663;42.676;23.238;2024-03-25T04:29:30;6.35;;;3.08;;
66751;SDS011;53663;42.676;23.238;2024-03-25T04:31:55;5.78;;;3.33;;
66751;SDS011;53663;42.676;23.238;2024-03-25T04:34:21;5.53;;;3.42;;
66751;SDS011;53663;42.676;23.238;2024-03-25T04:36:48;5.97;;;3.90;;
66751;SDS011;53663;42.676;23.238;2024-03-25T04:39:14;11.43;;;3.60;;
66751;SDS011;53663;42.676;23.238;2024-03-25T04:41:39;6.25;;;3.70;;
66751;SDS011;53663;42.676;23.238;2024-03-25T04:44:05;6.97;;;3.40;;
66751;SDS011;53663;42.676;23.238;2024-03-25T04:46:31;6.72;;;3.72;;
66751;SDS011;53663;42.676;23.238;2024-03-25T04:48:57;6.07;;;3.63;;
66751;SDS011;53663;42.676;23.238;2024-03-25T04:51:22;7.13;;;3.80;;
66751;SDS011;53663;42.676;23.238;2024-03-25T04:53:48;6.40;;;3.90;;
66751;SDS011;53663;42.676;23.238;2024-03-25T04:56:13;6.43;;;3.75;;
66751;SDS011;53663;42.676;23.238;2024-03-25T04:58:39;8.43;;;4.20;;
66751;SDS011;53663;42.676;23.238;2024-03-25T05:01:04;6.82;;;4.10;;
66751;SDS011;53663;42.676;23.238;2024-03-25T05:03:30;6.63;;;3.97;;
66751;SDS011;53663;42.676;23.238;2024-03-25T05:05:55;7.63;;;4.45;;
66751;SDS011;53663;42.676;23.238;2024-03-25T05:08:21;8.00;;;4.43;;
66751;SDS011;53663;42.676;23.238;2024-03-25T05:10:47;7.82;;;4.15;;
66751;SDS011;53663;42.676;23.238;2024-03-25T05:13:13;9.35;;;4.40;;
66751;SDS011;53663;42.676;23.238;2024-03-25T05:15:38;7.25;;;4.15;;
66751;SDS011;53663;42.676;23.238;2024-03-25T05:18:04;5.90;;;4.13;;
66751;SDS011;53663;42.676;23.238;2024-03-25T05:20:29;8.68;;;4.32;;
66751;SDS011;53663;42.676;23.238;2024-03-25T05:22:55;8.30;;;4.80;;
66751;SDS011;53663;42.676;23.238;2024-03-25T05:25:21;6.97;;;4.53;;
66751;SDS011;53663;42.676;23.238;2024-03-25T05:27:53;8.32;;;4.45;;
66751;SDS011;53663;42.676;23.238;2024-03-25T05:30:19;7.75;;;4.68;;
66751;SDS011;53663;42.676;23.238;2024-03-25T05:32:44;8.85;;;5.10;;
66751;SDS011;53663;42.676;23.238;2024-03-25T05:35:11;8.52;;;4.65;;
66751;SDS011;53663;42.676;23.238;2024-03-25T05:37:37;6.25;;;4.30;;
66751;SDS011;53663;42.676;23.238;2024-03-25T05:40:02;7.00;;;4.40;;
66751;SDS011;53663;42.676;23.238;2024-03-25T05:42:28;8.60;;;4.50;;
66751;SDS011;53663;42.676;23.238;2024-03-25T05:44:54;6.35;;;4.38;;
66751;SDS011;53663;42.676;23.238;2024-03-25T05:47:19;7.15;;;4.55;;
66751;SDS011;53663;42.676;23.238;2024-03-25T05:49:46;7.93;;;5.10;;
66751;SDS011;53663;42.676;23.238;2024-03-25T05:52:12;7.38;;;5.00;;
66751;SDS011;53663;42.676;23.238;2024-03-25T05:54:37;9.55;;;4.80;;
66751;SDS011;53663;42.676;23.238;2024-03-25T05:57:03;7.88;;;5.00;;
66751;SDS011;53663;42.676;23.238;2024-03-25T05:59:29;7.63;;;4.80;;
66751;SDS011;53663;42.676;23.238;2024-03-25T06:01:54;6.72;;;4.93;;
66751;SDS011;53663;42.676;23.238;2024-03-25T06:04:20;6.72;;;4.38;;
66751;SDS011;53663;42.676;23.238;2024-03-25T06:06:45;7.03;;;4.22;;
66751;SDS011;53663;42.676;23.238;2024-03-25T06:09:11;6.25;;;4.15;;
66751;SDS011;53663;42.676;23.238;2024-03-25T06:11:36;6.43;;;4.40;;
66751;SDS011;53663;42.676;23.238;2024-03-25T06:14:02;7.00;;;4.30;;
66751;SDS011;53663;42.676;23.238;2024-03-25T06:16:28;6.70;;;4.00;;
66751;SDS011;53663;42.676;23.238;2024-03-25T06:18:53;6.18;;;3.92;;
66751;SDS011;53663;42.676;23.238;2024-03-25T06:21:19;6.80;;;4.47;;
66751;SDS011;53663;42.676;23.238;2024-03-25T06:23:44;5.60;;;3.83;;
66751;SDS011;53663;42.676;23.238;2024-03-25T06:26:10;6.50;;;4.30;;
66751;SDS011;53663;42.676;23.238;2024-03-25T06:28:38;5.78;;;4.20;;
66751;SDS011;53663;42.676;23.238;2024-03-25T06:31:03;6.45;;;4.30;;
66751;SDS011;53663;42.676;23.238;2024-03-25T06:33:48;8.05;;;4.07;;
66751;SDS011;53663;42.676;23.238;2024-03-25T06:36:32;6.72;;;4.43;;
66751;SDS011;53663;42.676;23.238;2024-03-25T06:39:00;7.82;;;3.90;;
66751;SDS011;53663;42.676;23.238;2024-03-25T06:41:25;6.18;;;4.05;;
66751;SDS011;53663;42.676;23.238;2024-03-25T06:43:51;4.43;;;3.88;;
66751;SDS011;53663;42.676;23.238;2024-03-25T06:46:16;5.88;;;3.90;;
66751;SDS011;53663;42.676;23.238;2024-03-25T06:48:42;5.53;;;3.95;;
66751;SDS011;53663;42.676;23.238;2024-03-25T06:51:07;5.88;;;3.95;;
66751;SDS011;53663;42.676;23.238;2024-03-25T06:53:33;6.75;;;4.30;;
66751;SDS011;53663;42.676;23.238;2024-03-25T06:55:59;5.38;;;4.10;;
66751;SDS011;53663;42.676;23.238;2024-03-25T06:58:25;5.65;;;3.88;;
66751;SDS011;53663;42.676;23.238;2024-03-25T07:00:52;5.25;;;3.83;;
66751;SDS011;53663;42.676;23.238;2024-03-25T07:03:18;4.97;;;3.88;;
66751;SDS011;53663;42.676;23.238;2024-03-25T07:05:45;7.00;;;4.30;;
66751;SDS011;53663;42.676;23.238;2024-03-25T07:08:12;6.47;;;4.20;;
66751;SDS011;53663;42.676;23.238;2024-03-25T07:10:38;5.43;;;3.78;;
66751;SDS011;53663;42.676;23.238;2024-03-25T07:13:06;5.00;;;3.83;;
66751;SDS011;53663;42.676;23.238;2024-03-25T07:15:32;8.45;;;4.00;;
66751;SDS011;53663;42.676;23.238;2024-03-25T07:17:57;7.43;;;5.53;;
66751;SDS011;53663;42.676;23.238;2024-03-25T07:20:23;4.70;;;4.00;;
66751;SDS011;53663;42.676;23.238;2024-03-25T07:22:49;5.68;;;4.18;;
66751;SDS011;53663;42.676;23.238;2024-03-25T07:25:14;5.68;;;3.75;;
66751;SDS011;53663;42.676;23.238;2024-03-25T07:27:40;5.30;;;4.13;;
66751;SDS011;53663;42.676;23.238;2024-03-25T07:30:06;5.80;;;3.80;;
66751;SDS011;53663;42.676;23.238;2024-03-25T07:32:32;9.75;;;6.80;;
66751;SDS011;53663;42.676;23.238;2024-03-25T07:35:01;5.50;;;4.00;;
66751;SDS011;53663;42.676;23.238;2024-03-25T07:37:26;3.97;;;3.42;;
66751;SDS011;53663;42.676;23.238;2024-03-25T07:39:52;5.55;;;3.50;;
66751;SDS011;53663;42.676;23.238;2024-03-25T07:42:18;4.80;;;3.67;;
66751;SDS011;53663;42.676;23.238;2024-03-25T07:44:43;5.40;;;3.30;;
66751;SDS011;53663;42.676;23.238;2024-03-25T07:47:09;7.38;;;3.55;;
66751;SDS011;53663;42.676;23.238;2024-03-25T07:49:35;6.25;;;3.47;;
66751;SDS011;53663;42.676;23.238;2024-03-25T07:52:01;4.40;;;3.10;;
66751;SDS011;53663;42.676;23.238;2024-03-25T07:54:26;5.40;;;3.33;;
66751;SDS011;53663;42.676;23.238;2024-03-25T07:56:52;4.47;;;3.35;;
66751;SDS011;53663;42.676;23.238;2024-03-25T07:59:18;4.35;;;3.20;;
66751;SDS011;53663;42.676;23.238;2024-03-25T08:01:44;4.53;;;3.55;;
66751;SDS011;53663;42.676;23.238;2024-03-25T08:04:10;5.05;;;3.40;;
66751;SDS011;53663;42.676;23.238;2024-03-25T08:06:36;4.53;;;2.97;;
66751;SDS011;53663;42.676;23.238;2024-03-25T08:09:01;5.65;;;3.50;;
66751;SDS011;53663;42.676;23.238;2024-03-25T08:11:30;8.25;;;4.18;;
66751;SDS011;53663;42.676;23.238;2024-03-25T08:13:56;14.48;;;6.03;;
66751;SDS011;53663;42.676;23.238;2024-03-25T08:16:21;9.40;;;4.97;;
66751;SDS011;53663;42.676;23.238;2024-03-25T08:18:47;10.68;;;5.00;;
66751;SDS011;53663;42.676;23.238;2024-03-25T08:21:13;8.20;;;4.43;;
66751;SDS011;53663;42.676;23.238;2024-03-25T08:23:38;7.75;;;3.85;;
66751;SDS011;53663;42.676;23.238;2024-03-25T08:26:04;13.98;;;6.50;;
66751;SDS011;53663;42.676;23.238;2024-03-25T08:28:29;8.05;;;4.80;;
66751;SDS011;53663;42.676;23.238;2024-03-25T08:30:55;9.23;;;5.65;;
66751;SDS011;53663;42.676;23.238;2024-03-25T08:33:20;11.30;;;4.68;;
66751;SDS011;53663;42.676;23.238;2024-03-25T08:35:46;7.55;;;4.50;;
66751;SDS011;53663;42.676;23.238;2024-03-25T08:38:11;8.73;;;4.28;;
66751;SDS011;53663;42.676;23.238;2024-03-25T08:40:37;7.45;;;4.18;;
66751;SDS011;53663;42.676;23.238;2024-03-25T08:43:02;9.43;;;4.47;;
66751;SDS011;53663;42.676;23.238;2024-03-25T08:45:28;5.07;;;3.20;;
66751;SDS011;53663;42.676;23.238;2024-03-25T08:47:53;4.45;;;3.40;;
66751;SDS011;53663;42.676;23.238;2024-03-25T08:50:19;6.05;;;3.63;;
66751;SDS011;53663;42.676;23.238;2024-03-25T08:52:44;5.10;;;3.42;;
66751;SDS011;53663;42.676;23.238;2024-03-25T08:55:10;5.20;;;3.42;;
66751;SDS011;53663;42.676;23.238;2024-03-25T08:57:36;4.32;;;3.40;;
66751;SDS011;53663;42.676;23.238;2024-03-25T09:00:02;6.57;;;3.70;;
66751;SDS011;53663;42.676;23.238;2024-03-25T09:02:29;5.50;;;3.40;;
66751;SDS011;53663;42.676;23.238;2024-03-25T09:04:54;5.13;;;3.70;;
66751;SDS011;53663;42.676;23.238;2024-03-25T09:07:20;5.30;;;3.50;;
66751;SDS011;53663;42.676;23.238;2024-03-25T09:09:45;4.97;;;3.65;;
66751;SDS011;53663;42.676;23.238;2024-03-25T09:12:29;8.25;;;3.92;;
66751;SDS011;53663;42.676;23.238;2024-03-25T09:14:55;6.13;;;3.42;;
66751;SDS011;53663;42.676;23.238;2024-03-25T09:17:20;5.80;;;3.22;;
66751;SDS011;53663;42.676;23.238;2024-03-25T09:19:48;4.95;;;3.63;;
66751;SDS011;53663;42.676;23.238;2024-03-25T09:22:13;5.45;;;3.40;;
66751;SDS011;53663;42.676;23.238;2024-03-25T09:24:39;4.25;;;3.33;;
66751;SDS011;53663;42.676;23.238;2024-03-25T09:27:04;4.72;;;3.30;;
66751;SDS011;53663;42.676;23.238;2024-03-25T09:29:30;6.32;;;3.33;;
66751;SDS011;53663;42.676;23.238;2024-03-25T09:31:56;6.15;;;3.53;;
66751;SDS011;53663;42.676;23.238;2024-03-25T09:34:22;4.45;;;3.30;;
66751;SDS011;53663;42.676;23.238;2024-03-25T09:36:47;6.93;;;3.58;;
66751;SDS011;53663;42.676;23.238;2024-03-25T09:39:13;4.05;;;3.10;;
66751;SDS011;53663;42.676;23.238;2024-03-25T09:41:38;5.82;;;3.55;;
66751;SDS011;53663;42.676;23.238;2024-03-25T09:44:08;4.63;;;3.03;;
66751;SDS011;53663;42.676;23.238;2024-03-25T09:46:34;4.70;;;3.03;;
66751;SDS011;53663;42.676;23.238;2024-03-25T09:49:01;6.82;;;3.30;;
66751;SDS011;53663;42.676;23.238;2024-03-25T09:51:30;4.90;;;3.20;;
66751;SDS011;53663;42.676;23.238;2024-03-25T09:53:57;6.95;;;2.80;;
66751;SDS011;53663;42.676;23.238;2024-03-25T09:56:23;4.28;;;2.80;;
66751;SDS011;53663;42.676;23.238;2024-03-25T09:58:49;4.55;;;3.33;;
66751;SDS011;53663;42.676;23.238;2024-03-25T10:01:16;6.70;;;3.60;;
66751;SDS011;53663;42.676;23.238;2024-03-25T10:03:41;4.97;;;3.20;;
66751;SDS011;53663;42.676;23.238;2024-03-25T10:06:07;5.57;;;3.08;;
66751;SDS011;53663;42.676;23.238;2024-03-25T10:08:35;3.97;;;3.10;;
66751;SDS011;53663;42.676;23.238;2024-03-25T10:11:00;4.50;;;2.80;;
66751;SDS011;53663;42.676;23.238;2024-03-25T10:13:27;4.18;;;3.00;;
66751;SDS011;53663;42.676;23.238;2024-03-25T10:15:52;3.70;;;2.67;;
66751;SDS011;53663;42.676;23.238;2024-03-25T10:18:19;3.67;;;2.55;;
66751;SDS011;53663;42.676;23.238;2024-03-25T10:20:48;4.40;;;2.60;;
66751;SDS011;53663;42.676;23.238;2024-03-25T10:23:15;4.43;;;3.00;;
66751;SDS011;53663;42.676;23.238;2024-03-25T10:25:40;2.92;;;2.33;;
66751;SDS011;53663;42.676;23.238;2024-03-25T10:28:06;3.90;;;2.47;;
66751;SDS011;53663;42.676;23.238;2024-03-25T10:30:33;4.47;;;2.72;;
66751;SDS011;53663;42.676;23.238;2024-03-25T10:33:03;3.45;;;2.40;;
66751;SDS011;53663;42.676;23.238;2024-03-25T10:35:30;2.28;;;2.08;;
66751;SDS011;53663;42.676;23.238;2024-03-25T10:38:01;3.70;;;2.50;;
66751;SDS011;53663;42.676;23.238;2024-03-25T10:40:33;3.25;;;2.47;;
66751;SDS011;53663;42.676;23.238;2024-03-25T10:43:17;3.83;;;2.33;;
66751;SDS011;53663;42.676;23.238;2024-03-25T10:45:45;3.20;;;2.03;;
66751;SDS011;53663;42.676;23.238;2024-03-25T10:50:45;3.95;;;2.53;;
66751;SDS011;53663;42.676;23.238;2024-03-25T10:53:11;3.75;;;2.40;;
66751;SDS011;53663;42.676;23.238;2024-03-25T10:55:39;3.08;;;2.47;;
66751;SDS011;53663;42.676;23.238;2024-03-25T10:58:05;2.60;;;2.25;;
66751;SDS011;53663;42.676;23.238;2024-03-25T11:00:32;3.63;;;2.40;;
66751;SDS011;53663;42.676;23.238;2024-03-25T11:02:59;6.03;;;2.40;;
66751;SDS011;53663;42.676;23.238;2024-03-25T11:05:26;4.05;;;2.38;;
66751;SDS011;53663;42.676;23.238;2024-03-25T11:07:52;3.17;;;2.33;;
66751;SDS011;53663;42.676;23.238;2024-03-25T11:10:18;5.05;;;2.40;;
66751;SDS011;53663;42.676;23.238;2024-03-25T11:12:43;3.97;;;2.00;;
66751;SDS011;53663;42.676;23.238;2024-03-25T11:15:10;2.88;;;2.40;;
66751;SDS011;53663;42.676;23.238;2024-03-25T11:17:36;3.03;;;2.15;;
66751;SDS011;53663;42.676;23.238;2024-03-25T11:20:14;3.17;;;2.15;;
66751;SDS011;53663;42.676;23.238;2024-03-25T11:22:51;3.10;;;2.40;;
66751;SDS011;53663;42.676;23.238;2024-03-25T11:25:17;3.30;;;2.70;;
66751;SDS011;53663;42.676;23.238;2024-03-25T11:27:43;6.63;;;3.55;;
66751;SDS011;53663;42.676;23.238;2024-03-25T11:30:13;5.97;;;3.55;;
66751;SDS011;53663;42.676;23.238;2024-03-25T11:32:46;4.70;;;3.00;;
66751;SDS011;53663;42.676;23.238;2024-03-25T11:35:16;2.97;;;2.40;;
66751;SDS011;53663;42.676;23.238;2024-03-25T11:37:42;9.07;;;2.58;;
66751;SDS011;53663;42.676;23.238;2024-03-25T11:40:11;6.28;;;3.10;;
66751;SDS011;53663;42.676;23.238;2024-03-25T11:42:42;5.25;;;3.15;;
66751;SDS011;53663;42.676;23.238;2024-03-25T11:45:15;4.38;;;3.10;;
66751;SDS011;53663;42.676;23.238;2024-03-25T11:47:42;2.88;;;2.40;;
66751;SDS011;53663;42.676;23.238;2024-03-25T11:50:15;4.65;;;2.40;;
66751;SDS011;53663;42.676;23.238;2024-03-25T11:52:42;3.05;;;2.20;;
66751;SDS011;53663;42.676;23.238;2024-03-25T11:55:08;3.50;;;2.30;;
66751;SDS011;53663;42.676;23.238;2024-03-25T11:57:35;2.45;;;2.25;;
66751;SDS011;53663;42.676;23.238;2024-03-25T12:00:01;3.70;;;2.88;;
66751;SDS011;53663;42.676;23.238;2024-03-25T12:02:38;2.80;;;2.00;;
66751;SDS011;53663;42.676;23.238;2024-03-25T12:05:07;1.90;;;1.80;;
66751;SDS011;53663;42.676;23.238;2024-03-25T12:07:33;3.50;;;1.83;;
66751;SDS011;53663;42.676;23.238;2024-03-25T12:10:01;1.95;;;1.75;;
66751;SDS011;53663;42.676;23.238;2024-03-25T12:12:45;2.05;;;1.85;;
66751;SDS011;53663;42.676;23.238;2024-03-25T12:15:10;2.17;;;1.80;;
66751;SDS011;53663;42.676;23.238;2024-03-25T12:17:36;1.80;;;1.70;;
66751;SDS011;53663;42.676;23.238;2024-03-25T12:20:03;1.73;;;1.63;;
66751;SDS011;53663;42.676;23.238;2024-03-25T12:22:41;3.47;;;1.80;;
66751;SDS011;53663;42.676;23.238;2024-03-25T12:25:07;3.45;;;2.10;;
66751;SDS011;53663;42.676;23.238;2024-03-25T12:27:34;2.25;;;1.90;;
66751;SDS011;53663;42.676;23.238;2024-03-25T12:30:04;3.05;;;2.03;;
66751;SDS011;53663;42.676;23.238;2024-03-25T12:32:38;3.38;;;2.10;;
66751;SDS011;53663;42.676;23.238;2024-03-25T12:35:09;3.88;;;2.00;;
66751;SDS011;53663;42.676;23.238;2024-03-25T12:37:40;3.00;;;1.90;;
66751;SDS011;53663;42.676;23.238;2024-03-25T12:40:07;2.83;;;2.00;;
66751;SDS011;53663;42.676;23.238;2024-03-25T12:42:35;3.08;;;1.88;;
66751;SDS011;53663;42.676;23.238;2024-03-25T12:45:01;3.88;;;2.47;;
66751;SDS011;53663;42.676;23.238;2024-03-25T12:47:28;2.55;;;2.03;;
66751;SDS011;53663;42.676;23.238;2024-03-25T12:49:54;4.10;;;2.40;;
66751;SDS011;53663;42.676;23.238;2024-03-25T12:52:20;2.65;;;1.80;;
66751;SDS011;53663;42.676;23.238;2024-03-25T12:54:46;1.83;;;1.60;;
66751;SDS011;53663;42.676;23.238;2024-03-25T12:57:12;3.83;;;2.03;;
66751;SDS011;53663;42.676;23.238;2024-03-25T12:59:37;3.90;;;2.10;;
66751;SDS011;53663;42.676;23.238;2024-03-25T13:02:03;3.08;;;2.20;;
66751;SDS011;53663;42.676;23.238;2024-03-25T13:04:29;2.78;;;2.00;;
66751;SDS011;53663;42.676;23.238;2024-03-25T13:06:54;3.00;;;2.22;;
66751;SDS011;53663;42.676;23.238;2024-03-25T13:09:20;2.78;;;2.30;;
66751;SDS011;53663;42.676;23.238;2024-03-25T13:11:46;2.65;;;2.03;;
66751;SDS011;53663;42.676;23.238;2024-03-25T13:14:12;2.20;;;1.90;;
66751;SDS011;53663;42.676;23.238;2024-03-25T13:16:41;5.07;;;2.55;;
66751;SDS011;53663;42.676;23.238;2024-03-25T13:19:06;4.38;;;2.50;;
66751;SDS011;53663;42.676;23.238;2024-03-25T13:21:32;2.92;;;2.20;;
66751;SDS011;53663;42.676;23.238;2024-03-25T13:23:58;2.42;;;1.90;;
66751;SDS011;53663;42.676;23.238;2024-03-25T13:26:24;2.72;;;2.10;;
66751;SDS011;53663;42.676;23.238;2024-03-25T13:28:51;2.25;;;1.80;;
66751;SDS011;53663;42.676;23.238;2024-03-25T13:31:17;4.68;;;2.20;;
66751;SDS011;53663;42.676;23.238;2024-03-25T13:33:42;7.03;;;2.20;;
66751;SDS011;53663;42.676;23.238;2024-03-25T13:36:08;2.80;;;2.00;;
66751;SDS011;53663;42.676;23.238;2024-03-25T13:38:33;1.95;;;1.77;;
66751;SDS011;53663;42.676;23.238;2024-03-25T13:40:59;2.83;;;2.13;;
66751;SDS011;53663;42.676;23.238;2024-03-25T13:43:26;4.15;;;2.10;;
66751;SDS011;53663;42.676;23.238;2024-03-25T13:45:52;5.93;;;2.05;;
66751;SDS011;53663;42.676;23.238;2024-03-25T13:48:17;2.20;;;1.77;;
66751;SDS011;53663;42.676;23.238;2024-03-25T13:50:43;2.63;;;1.55;;
66751;SDS011;53663;42.676;23.238;2024-03-25T13:53:13;2.03;;;1.60;;
66751;SDS011;53663;42.676;23.238;2024-03-25T13:55:38;2.28;;;1.75;;
66751;SDS011;53663;42.676;23.238;2024-03-25T13:58:04;3.33;;;1.52;;
66751;SDS011;53663;42.676;23.238;2024-03-25T14:00:30;5.88;;;2.38;;
66751;SDS011;53663;42.676;23.238;2024-03-25T14:02:58;1.30;;;1.17;;
66751;SDS011;53663;42.676;23.238;2024-03-25T14:05:25;3.42;;;1.92;;
66751;SDS011;53663;42.676;23.238;2024-03-25T14:07:51;5.30;;;1.80;;
66751;SDS011;53663;42.676;23.238;2024-03-25T14:10:17;6.53;;;2.40;;
66751;SDS011;53663;42.676;23.238;2024-03-25T14:12:42;2.72;;;1.75;;
66751;SDS011;53663;42.676;23.238;2024-03-25T14:15:08;1.40;;;1.25;;
66751;SDS011;53663;42.676;23.238;2024-03-25T14:17:34;1.88;;;1.40;;
66751;SDS011;53663;42.676;23.238;2024-03-25T14:20:00;2.60;;;1.65;;
66751;SDS011;53663;42.676;23.238;2024-03-25T14:22:26;3.58;;;1.70;;
66751;SDS011;53663;42.676;23.238;2024-03-25T14:24:52;6.95;;;2.50;;
66751;SDS011;53663;42.676;23.238;2024-03-25T14:29:48;3.92;;;2.00;;
66751;SDS011;53663;42.676;23.238;2024-03-25T14:32:13;3.22;;;2.45;;
66751;SDS011;53663;42.676;23.238;2024-03-25T14:34:39;2.10;;;1.48;;
66751;SDS011;53663;42.676;23.238;2024-03-25T14:37:05;3.97;;;1.60;;